createdAt,value
2022-09-07T00:02:06.819Z,99181.94
2022-09-07T00:04:34.266Z,99175.13
2022-09-07T00:07:01.204Z,99168.28
2022-09-07T00:09:29.132Z,99164.00
2022-09-07T00:11:56.159Z,99171.94
2022-09-07T00:14:23.046Z,99172.97
2022-09-07T00:16:49.945Z,99165.34
2022-09-07T00:19:17.056Z,99166.44
2022-09-07T00:21:44.012Z,99168.25
2022-09-07T00:24:10.962Z,99165.69
2022-09-07T00:26:38.262Z,99161.31
2022-09-07T00:29:06.422Z,99160.50
2022-09-07T00:31:33.819Z,99158.75
2022-09-07T00:34:02.344Z,99161.56
2022-09-07T00:36:29.849Z,99155.66
2022-09-07T00:38:56.839Z,99160.13
2022-09-07T00:41:24.487Z,99160.16
2022-09-07T00:43:56.061Z,99151.47
2022-09-07T00:46:24.670Z,99157.63
2022-09-07T00:49:09.056Z,99155.94
2022-09-07T00:52:03.523Z,99157.75
2022-09-07T00:54:39.174Z,99147.41
2022-09-07T00:57:06.959Z,99152.75
2022-09-07T00:59:39.465Z,99146.72
2022-09-07T01:02:06.692Z,99149.47
2022-09-07T01:04:35.095Z,99153.00
2022-09-07T01:07:03.293Z,99152.13
2022-09-07T01:09:31.047Z,99153.94
2022-09-07T01:12:00.897Z,99154.06
2022-09-07T01:14:34.911Z,99148.91
2022-09-07T01:17:19.181Z,99150.75
2022-09-07T01:20:15.430Z,99146.44
2022-09-07T01:22:56.113Z,99150.06
2022-09-07T01:25:50.728Z,99141.47
2022-09-07T01:28:17.571Z,99137.97
2022-09-07T01:30:56.101Z,99135.44
2022-09-07T01:33:45.098Z,99136.31
2022-09-07T01:36:18.962Z,99132.91
2022-09-07T01:38:53.511Z,99132.09
2022-09-07T01:41:39.182Z,99125.19
2022-09-07T01:44:06.032Z,99122.59
2022-09-07T01:46:42.375Z,99127.91
2022-09-07T01:49:18.040Z,99120.00
2022-09-07T01:51:48.568Z,99113.88
2022-09-07T01:54:22.551Z,99117.38
2022-09-07T01:56:56.300Z,99118.22
2022-09-07T01:59:38.614Z,99122.50
2022-09-07T02:02:41.271Z,99111.97
2022-09-07T02:05:14.207Z,99113.44
2022-09-07T02:08:01.346Z,99109.75
2022-09-07T02:10:41.824Z,99102.63
2022-09-07T02:13:35.204Z,99098.09
2022-09-07T02:16:16.556Z,99103.22
2022-09-07T02:18:46.933Z,99094.47
2022-09-07T02:21:19.982Z,99097.03
2022-09-07T02:23:52.019Z,99091.69
2022-09-07T02:26:22.492Z,99094.13
2022-09-07T02:28:50.721Z,99088.75
2022-09-07T02:31:18.258Z,99084.25
2022-09-07T02:33:45.339Z,99083.28
2022-09-07T02:36:15.512Z,99072.75
2022-09-07T02:38:42.442Z,99074.44
2022-09-07T02:41:28.258Z,99073.63
2022-09-07T02:43:55.591Z,99067.44
2022-09-07T02:46:36.547Z,99068.25
2022-09-07T02:49:32.272Z,99061.19
2022-09-07T02:52:05.044Z,99066.38
2022-09-07T02:54:44.189Z,99060.22
2022-09-07T02:57:38.931Z,99052.31
2022-09-07T03:00:13.622Z,99050.50
2022-09-07T03:02:55.717Z,99040.03
2022-09-07T03:05:44.637Z,99053.16
2022-09-07T03:08:20.532Z,99062.94
2022-09-07T03:10:49.043Z,99061.34
2022-09-07T03:13:34.453Z,99049.22
2022-09-07T03:16:01.873Z,99051.00
2022-09-07T03:18:29.373Z,99051.13
2022-09-07T03:20:56.449Z,99054.69
2022-09-07T03:23:23.886Z,99045.16
2022-09-07T03:25:51.178Z,99045.22
2022-09-07T03:28:18.212Z,99034.75
2022-09-07T03:30:47.588Z,99035.78
2022-09-07T03:33:17.732Z,99038.69
2022-09-07T03:35:46.000Z,99039.66
2022-09-07T03:38:13.398Z,99054.63
2022-09-07T03:40:40.426Z,99050.31
2022-09-07T03:43:07.305Z,99043.28
2022-09-07T03:45:34.541Z,99034.50
2022-09-07T03:48:01.563Z,99043.03
2022-09-07T03:50:29.262Z,99040.22
2022-09-07T03:52:56.470Z,99036.75
2022-09-07T03:55:23.439Z,99036.72
2022-09-07T03:57:50.280Z,99040.22
2022-09-07T04:00:17.510Z,99032.47
2022-09-07T04:02:44.371Z,99030.69
2022-09-07T04:05:11.717Z,99033.28
2022-09-07T04:07:38.893Z,99036.75
2022-09-07T04:10:06.061Z,99023.63
2022-09-07T04:12:32.921Z,99020.91
2022-09-07T04:15:00.039Z,99022.59
2022-09-07T04:17:26.917Z,99029.47
2022-09-07T04:19:53.739Z,99038.06
2022-09-07T04:22:20.831Z,99034.47
2022-09-07T04:24:47.719Z,99038.63
2022-09-07T04:27:14.551Z,99047.81
2022-09-07T04:29:41.624Z,99049.94
2022-09-07T04:32:12.362Z,99053.75
2022-09-07T04:34:42.207Z,99052.47
2022-09-07T04:37:09.061Z,99052.03
2022-09-07T04:39:35.944Z,99049.00
2022-09-07T04:42:03.111Z,99053.91
2022-09-07T04:44:30.004Z,99054.56
2022-09-07T04:46:56.887Z,99059.59
2022-09-07T04:49:24.047Z,99065.53
2022-09-07T04:51:52.139Z,99071.44
2022-09-07T04:54:19.036Z,99066.81
2022-09-07T04:56:46.165Z,99064.75
2022-09-07T04:59:13.042Z,99063.78
2022-09-07T05:01:40.173Z,99059.91
2022-09-07T05:04:07.312Z,99068.41
2022-09-07T05:06:34.697Z,99058.63
2022-09-07T05:09:01.584Z,99050.03
2022-09-07T05:11:30.022Z,99048.34
2022-09-07T05:14:01.859Z,99050.78
2022-09-07T05:16:29.760Z,99055.44
2022-09-07T05:18:59.809Z,99057.28
2022-09-07T05:21:29.863Z,99057.72
2022-09-07T05:23:58.279Z,99055.81
2022-09-07T05:26:28.375Z,99061.31
2022-09-07T05:31:43.036Z,99053.13
2022-09-07T05:36:57.877Z,99057.94
2022-09-07T05:39:24.900Z,99060.59
2022-09-07T05:41:51.803Z,99053.28
2022-09-07T05:47:06.197Z,99048.97
2022-09-07T05:49:33.420Z,99049.22
2022-09-07T05:52:00.390Z,99057.09
2022-09-07T05:54:27.453Z,99054.41
2022-09-07T05:56:54.509Z,99049.38
2022-09-07T05:59:21.354Z,99049.69
2022-09-07T06:01:48.289Z,99045.25
2022-09-07T06:04:15.383Z,99052.81
2022-09-07T06:06:47.841Z,99047.56
2022-09-07T06:09:30.349Z,99048.91
2022-09-07T06:11:57.459Z,99043.34
2022-09-07T06:14:25.085Z,99054.03
2022-09-07T06:16:52.205Z,99051.63
2022-09-07T06:19:19.128Z,99058.34
2022-09-07T06:21:46.002Z,99050.00
2022-09-07T06:24:13.212Z,99056.31
2022-09-07T06:26:40.066Z,99058.22
2022-09-07T06:29:06.983Z,99054.56
2022-09-07T06:31:34.567Z,99065.09
2022-09-07T06:34:01.671Z,99065.34
2022-09-07T06:36:29.168Z,99055.75
2022-09-07T06:38:59.148Z,99058.16
2022-09-07T06:44:16.081Z,99055.25
2022-09-07T06:49:30.280Z,99065.91
2022-09-07T06:51:57.200Z,99058.09
2022-09-07T06:57:11.182Z,99060.25
2022-09-07T06:59:38.918Z,99064.38
2022-09-07T07:02:06.525Z,99067.34
2022-09-07T07:04:39.394Z,99061.78
2022-09-07T07:07:09.458Z,99069.53
2022-09-07T07:09:36.737Z,99059.56
2022-09-07T07:12:04.010Z,99061.63
2022-09-07T07:14:33.774Z,99058.63
2022-09-07T07:17:02.847Z,99068.19
2022-09-07T07:19:29.743Z,99070.06
2022-09-07T07:24:43.713Z,99074.91
2022-09-07T07:27:10.577Z,99062.41
2022-09-07T07:29:37.431Z,99069.06
2022-09-07T07:32:04.584Z,99063.63
2022-09-07T07:34:31.566Z,99064.34
2022-09-07T07:36:58.513Z,99068.53
2022-09-07T07:42:12.591Z,99074.06
2022-09-07T07:44:39.676Z,99072.22
2022-09-07T07:47:06.693Z,99067.47
2022-09-07T07:49:33.868Z,99065.31
2022-09-07T07:54:48.247Z,99057.63
2022-09-07T07:57:17.009Z,99068.72
2022-09-07T07:59:43.869Z,99066.19
2022-09-07T08:02:15.867Z,99064.84
2022-09-07T08:04:43.234Z,99068.00
2022-09-07T08:07:12.175Z,99069.41
2022-09-07T08:09:42.285Z,99067.47
2022-09-07T08:12:12.352Z,99065.22
2022-09-07T08:14:43.443Z,99059.84
2022-09-07T08:17:12.317Z,99056.31
2022-09-07T08:19:39.771Z,99044.22
2022-09-07T08:22:07.967Z,99046.00
2022-09-07T08:24:35.749Z,99038.28
2022-09-07T08:27:02.873Z,99045.66
2022-09-07T08:29:33.526Z,99043.81
2022-09-07T08:32:06.865Z,99035.03
2022-09-07T08:34:36.281Z,99051.06
2022-09-07T08:37:04.081Z,99041.94
2022-09-07T08:39:31.277Z,99037.00
2022-09-07T08:42:19.173Z,99028.47
2022-09-07T08:44:54.455Z,99034.56
2022-09-07T08:47:27.986Z,99037.66
2022-09-07T08:50:28.950Z,99038.69
2022-09-07T08:53:08.461Z,99030.91
2022-09-07T08:55:53.158Z,99026.38
2022-09-07T08:58:48.123Z,99020.78
2022-09-07T09:01:33.758Z,99019.84
2022-09-07T09:04:18.005Z,99024.41
2022-09-07T09:07:40.041Z,99029.88
2022-09-07T09:10:13.881Z,99026.03
2022-09-07T09:12:58.454Z,99017.88
2022-09-07T09:15:32.323Z,99015.13
2022-09-07T09:18:27.351Z,99016.25
2022-09-07T09:20:56.881Z,99016.59
2022-09-07T09:23:27.259Z,99005.09
2022-09-07T09:26:01.392Z,98997.34
2022-09-07T09:28:31.747Z,98998.44
2022-09-07T09:30:59.475Z,99001.53
2022-09-07T09:33:29.127Z,99004.09
2022-09-07T09:36:00.231Z,98998.97
2022-09-07T09:38:40.801Z,98999.41
2022-09-07T09:41:10.599Z,98995.25
2022-09-07T09:43:52.280Z,98997.47
2022-09-07T09:46:27.412Z,98989.84
2022-09-07T09:49:00.899Z,98995.31
2022-09-07T09:54:53.894Z,98983.63
2022-09-07T09:59:04.864Z,98987.19
2022-09-07T10:00:35.343Z,98984.34
2022-09-07T10:06:04.279Z,98981.41
2022-09-07T10:08:33.428Z,98972.88
2022-09-07T10:11:04.669Z,98979.63
2022-09-07T10:13:41.983Z,98979.78
2022-09-07T10:16:11.659Z,98974.19
2022-09-07T10:18:41.898Z,98968.34
2022-09-07T10:21:34.914Z,98957.56
2022-09-07T10:24:04.945Z,98962.66
2022-09-07T10:26:34.623Z,98957.75
2022-09-07T10:29:16.806Z,98961.06
2022-09-07T10:31:56.976Z,98948.75
2022-09-07T10:34:38.978Z,98966.81
2022-09-07T10:37:11.117Z,98954.78
2022-09-07T10:39:44.012Z,98946.00
2022-09-07T10:42:31.778Z,98950.53
2022-09-07T10:44:58.516Z,98955.25
2022-09-07T10:47:46.893Z,98943.84
2022-09-07T10:50:42.898Z,98943.63
2022-09-07T10:53:41.869Z,98928.69
2022-09-07T10:56:11.993Z,98928.72
2022-09-07T10:59:03.585Z,98934.41
2022-09-07T11:01:42.795Z,98926.66
2022-09-07T11:04:12.904Z,98927.47
2022-09-07T11:06:41.851Z,98931.06
2022-09-07T11:09:18.525Z,98934.13
2022-09-07T11:12:09.938Z,98933.22
2022-09-07T11:15:07.076Z,98926.59
2022-09-07T11:17:41.678Z,98929.53
2022-09-07T11:20:35.697Z,98932.34
2022-09-07T11:23:11.826Z,98926.41
2022-09-07T11:25:59.064Z,98932.31
2022-09-07T11:31:45.180Z,98914.00
2022-09-07T11:34:24.723Z,98912.75
2022-09-07T11:37:09.453Z,98913.53
2022-09-07T11:39:45.062Z,98904.63
2022-09-07T11:45:29.714Z,98911.63
2022-09-07T11:48:04.885Z,98904.16
2022-09-07T11:50:39.480Z,98903.97
2022-09-07T11:53:18.322Z,98902.84
2022-09-07T11:55:49.901Z,98890.75
2022-09-07T11:58:37.960Z,98898.44
2022-09-07T12:01:48.197Z,98896.91
2022-09-07T12:04:45.844Z,98888.59
2022-09-07T12:07:38.082Z,98890.63
2022-09-07T12:10:26.697Z,98883.88
2022-09-07T12:13:24.375Z,98885.28
2022-09-07T12:16:15.458Z,98879.00
2022-09-07T12:19:13.707Z,98888.25
2022-09-07T12:21:43.932Z,98883.41
2022-09-07T12:24:35.696Z,98870.84
2022-09-07T12:27:10.547Z,98882.34
2022-09-07T12:29:45.078Z,98871.84
2022-09-07T12:35:00.835Z,98869.16
2022-09-07T12:37:27.707Z,98866.22
2022-09-07T12:40:28.715Z,98860.91
2022-09-07T12:43:14.158Z,98866.31
2022-09-07T12:45:40.972Z,98858.72
2022-09-07T12:48:16.978Z,98849.72
2022-09-07T12:51:00.507Z,98855.09
2022-09-07T12:53:46.020Z,98850.00
2022-09-07T12:56:34.511Z,98851.19
2022-09-07T12:59:19.520Z,98846.09
2022-09-07T13:02:28.506Z,98843.69
2022-09-07T13:05:15.726Z,98840.03
2022-09-07T13:08:01.721Z,98833.59
2022-09-07T13:10:37.083Z,98831.06
2022-09-07T13:13:07.031Z,98828.59
2022-09-07T13:15:40.689Z,98831.84
2022-09-07T13:18:34.517Z,98841.09
2022-09-07T13:21:07.194Z,98836.16
2022-09-07T13:23:39.093Z,98832.25
2022-09-07T13:26:09.524Z,98826.19
2022-09-07T13:28:40.165Z,98836.94
2022-09-07T13:31:15.987Z,98826.47
2022-09-07T13:33:51.277Z,98829.53
2022-09-07T13:36:37.615Z,98836.28
2022-09-07T13:39:12.799Z,98829.94
2022-09-07T13:42:00.315Z,98834.50
2022-09-07T13:44:33.602Z,98825.53
2022-09-07T13:47:25.711Z,98834.09
2022-09-07T13:50:05.558Z,98832.66
2022-09-07T13:52:42.341Z,98832.00
2022-09-07T13:55:34.460Z,98825.31
2022-09-07T13:58:19.820Z,98822.66
2022-09-07T14:00:54.472Z,98824.44
2022-09-07T14:03:24.096Z,98825.50
2022-09-07T14:06:27.414Z,98812.19
2022-09-07T14:08:58.064Z,98817.94
2022-09-07T14:11:29.554Z,98815.91
2022-09-07T14:14:17.989Z,98814.19
2022-09-07T14:17:00.317Z,98819.09
2022-09-07T14:19:42.887Z,98814.56
2022-09-07T14:22:16.643Z,98808.81
2022-09-07T14:24:51.587Z,98806.78
2022-09-07T14:27:32.877Z,98809.69
2022-09-07T14:30:28.049Z,98808.69
2022-09-07T14:32:58.224Z,98803.25
2022-09-07T14:35:28.494Z,98803.94
2022-09-07T14:38:03.397Z,98805.31
2022-09-07T14:40:30.648Z,98808.19
2022-09-07T14:42:58.253Z,98800.38
2022-09-07T14:45:39.735Z,98802.75
2022-09-07T14:48:13.102Z,98803.59
2022-09-07T14:50:46.830Z,98803.44
2022-09-07T14:53:34.634Z,98807.63
2022-09-07T14:56:08.321Z,98802.91
2022-09-07T14:58:35.455Z,98802.75
2022-09-07T15:04:01.987Z,98800.81
2022-09-07T15:09:35.004Z,98790.00
2022-09-07T15:12:27.187Z,98789.13
2022-09-07T15:15:37.641Z,98783.41
2022-09-07T15:18:42.422Z,98785.19
2022-09-07T15:21:09.604Z,98792.03
2022-09-07T15:23:36.362Z,98789.69
2022-09-07T15:26:03.616Z,98780.75
2022-09-07T15:34:15.996Z,98780.34
2022-09-07T15:36:53.591Z,98791.09
2022-09-07T15:39:25.049Z,98781.34
2022-09-07T15:41:52.344Z,98777.66
2022-09-07T15:44:24.353Z,98781.34
2022-09-07T15:49:39.550Z,98783.91
2022-09-07T15:52:09.456Z,98777.81
2022-09-07T15:54:39.613Z,98773.75
2022-09-07T15:59:54.005Z,98773.47
2022-09-07T16:05:08.813Z,98764.44
2022-09-07T16:10:22.860Z,98763.63
2022-09-07T16:13:10.901Z,98765.22
2022-09-07T16:15:45.117Z,98759.78
2022-09-07T16:18:16.753Z,98763.03
2022-09-07T16:20:45.060Z,98766.50
2022-09-07T16:23:15.316Z,98764.56
2022-09-07T16:25:54.181Z,98752.25
2022-09-07T16:28:21.130Z,98756.66
2022-09-07T16:30:48.136Z,98760.53
2022-09-07T16:33:15.339Z,98756.66
2022-09-07T16:35:42.445Z,98762.63
2022-09-07T16:40:56.579Z,98761.19
2022-09-07T16:43:23.331Z,98754.84
2022-09-07T16:46:03.063Z,98760.34
2022-09-07T16:48:35.363Z,98764.53
2022-09-07T16:51:03.572Z,98760.34
2022-09-07T16:53:32.622Z,98770.41
2022-09-07T16:56:10.944Z,98769.94
2022-09-07T16:58:45.810Z,98776.53
2022-09-07T17:01:18.554Z,98773.25
2022-09-07T17:03:46.139Z,98783.56
2022-09-07T17:06:14.293Z,98782.06
2022-09-07T17:08:42.346Z,98775.81
2022-09-07T17:11:11.807Z,98783.81
2022-09-07T17:13:40.772Z,98793.53
2022-09-07T17:16:10.670Z,98787.81
2022-09-07T17:21:28.366Z,98788.91
2022-09-07T17:23:55.946Z,98790.53
2022-09-07T17:26:26.709Z,98800.75
2022-09-07T17:29:00.405Z,98798.09
2022-09-07T17:34:17.601Z,98811.59
2022-09-07T17:36:44.592Z,98808.72
2022-09-07T17:39:16.454Z,98815.91
2022-09-07T17:41:44.845Z,98814.19
2022-09-07T17:44:12.021Z,98817.19
2022-09-07T17:46:38.891Z,98817.28
2022-09-07T17:49:10.372Z,98820.47
2022-09-07T17:51:37.320Z,98825.53
2022-09-07T17:54:10.880Z,98825.53
2022-09-07T17:56:39.464Z,98829.28
2022-09-07T18:01:54.219Z,98838.00
2022-09-07T18:04:22.080Z,98842.41
2022-09-07T18:06:49.011Z,98835.13
2022-09-07T18:09:16.293Z,98841.59
2022-09-07T18:11:45.989Z,98844.75
2022-09-07T18:14:14.846Z,98837.38
2022-09-07T18:16:43.680Z,98848.66
2022-09-07T18:19:11.808Z,98841.28
2022-09-07T18:21:40.911Z,98851.50
2022-09-07T18:24:20.248Z,98844.97
2022-09-07T18:26:50.595Z,98848.84
2022-09-07T18:29:33.047Z,98853.56
2022-09-07T18:32:08.190Z,98853.25
2022-09-07T18:34:37.307Z,98847.75
2022-09-07T18:37:04.734Z,98856.09
2022-09-07T18:39:32.385Z,98846.78
2022-09-07T18:41:59.489Z,98846.22
2022-09-07T18:47:21.663Z,98843.44
2022-09-07T18:49:50.174Z,98835.75
2022-09-07T18:55:07.087Z,98844.53
2022-09-07T18:57:35.028Z,98834.97
2022-09-07T19:00:05.062Z,98842.16
2022-09-07T19:02:31.916Z,98835.16
2022-09-07T19:07:45.743Z,98835.16
2022-09-07T19:10:14.491Z,98835.16
2022-09-07T19:12:45.505Z,98836.09
2022-09-07T19:15:13.344Z,98827.28
2022-09-07T19:17:40.426Z,98825.50
2022-09-07T19:20:07.856Z,98837.13
2022-09-07T19:22:34.920Z,98831.13
2022-09-07T19:25:01.699Z,98831.91
2022-09-07T19:27:29.251Z,98822.91
2022-09-07T19:29:56.254Z,98821.03
2022-09-07T19:32:23.188Z,98826.19
2022-09-07T19:34:54.538Z,98823.53
2022-09-07T19:37:26.006Z,98819.34
2022-09-07T19:39:55.266Z,98811.84
2022-09-07T19:42:23.700Z,98806.31
2022-09-07T19:44:51.158Z,98801.22
2022-09-07T19:47:18.786Z,98803.34
2022-09-07T19:49:45.924Z,98804.38
2022-09-07T19:52:12.839Z,98806.47
2022-09-07T19:54:40.540Z,98803.13
2022-09-07T19:57:07.489Z,98807.84
2022-09-07T19:59:34.248Z,98802.88
2022-09-07T20:02:01.103Z,98804.13
2022-09-07T20:04:28.325Z,98804.56
2022-09-07T20:06:55.226Z,98802.16
2022-09-07T20:09:22.028Z,98805.00
2022-09-07T20:11:49.450Z,98801.66
2022-09-07T20:14:16.907Z,98800.03
2022-09-07T20:16:44.119Z,98801.75
2022-09-07T20:19:14.937Z,98809.59
2022-09-07T20:21:42.909Z,98804.41
2022-09-07T20:24:14.685Z,98806.88
2022-09-07T20:26:41.710Z,98808.41
2022-09-07T20:29:26.926Z,98804.72
2022-09-07T20:31:57.074Z,98808.84
2022-09-07T20:34:24.021Z,98812.34
2022-09-07T20:36:51.327Z,98810.47
2022-09-07T20:39:19.319Z,98813.00
2022-09-07T20:41:46.539Z,98812.41
2022-09-07T20:44:14.297Z,98814.28
2022-09-07T20:46:41.509Z,98817.13
2022-09-07T20:49:08.519Z,98825.19
2022-09-07T20:51:35.407Z,98818.28
2022-09-07T20:54:02.456Z,98824.88
2022-09-07T20:56:29.381Z,98827.78
2022-09-07T20:59:01.151Z,98824.59
2022-09-07T21:01:29.795Z,98824.09
2022-09-07T21:03:58.500Z,98830.06
2022-09-07T21:06:27.332Z,98833.25
2022-09-07T21:08:55.271Z,98823.00
2022-09-07T21:11:25.610Z,98826.06
2022-09-07T21:14:17.686Z,98826.63
2022-09-07T21:16:44.623Z,98825.69
2022-09-07T21:19:11.443Z,98828.50
2022-09-07T21:21:41.018Z,98820.81
2022-09-07T21:24:22.175Z,98815.84
2022-09-07T21:26:50.360Z,98812.41
2022-09-07T21:29:18.811Z,98812.59
2022-09-07T21:31:46.144Z,98818.88
2022-09-07T21:34:13.735Z,98818.25
2022-09-07T21:36:40.786Z,98808.81
2022-09-07T21:39:12.467Z,98816.88
2022-09-07T21:41:42.114Z,98806.72
2022-09-07T21:44:12.718Z,98812.91
2022-09-07T21:46:39.908Z,98823.03
2022-09-07T21:49:06.978Z,98823.47
2022-09-07T21:51:33.874Z,98822.97
2022-09-07T21:54:01.464Z,98823.03
2022-09-07T21:56:31.191Z,98821.34
2022-09-07T21:58:59.996Z,98818.75
2022-09-07T22:01:28.698Z,98820.69
2022-09-07T22:03:58.606Z,98822.72
2022-09-07T22:06:27.688Z,98821.06
2022-09-07T22:08:54.845Z,98815.19
2022-09-07T22:11:23.460Z,98822.38
2022-09-07T22:13:55.585Z,98811.38
2022-09-07T22:16:23.686Z,98821.19
2022-09-07T22:18:50.744Z,98818.72
2022-09-07T22:21:20.428Z,98821.56
2022-09-07T22:23:50.438Z,98819.06
2022-09-07T22:26:22.331Z,98818.44
2022-09-07T22:28:49.539Z,98816.50
2022-09-07T22:31:19.255Z,98808.69
2022-09-07T22:33:47.925Z,98813.16
2022-09-07T22:36:19.435Z,98811.59
2022-09-07T22:38:48.746Z,98816.94
2022-09-07T22:41:16.975Z,98813.91
2022-09-07T22:43:44.913Z,98824.50
2022-09-07T22:46:12.834Z,98812.25
2022-09-07T22:48:40.715Z,98822.19
2022-09-07T22:51:08.878Z,98811.69
2022-09-07T22:53:37.664Z,98807.31
2022-09-07T22:56:10.599Z,98809.13
2022-09-07T22:58:38.352Z,98802.28
2022-09-07T23:01:06.140Z,98804.13
2022-09-07T23:03:34.811Z,98804.34
2022-09-07T23:06:02.786Z,98804.56
2022-09-07T23:08:30.050Z,98798.44
2022-09-07T23:11:04.211Z,98799.38
2022-09-07T23:13:33.014Z,98795.00
2022-09-07T23:16:07.155Z,98789.91
2022-09-07T23:18:34.857Z,98783.13
2022-09-07T23:21:02.249Z,98785.13
2022-09-07T23:23:29.705Z,98784.47
2022-09-07T23:25:56.971Z,98782.13
2022-09-07T23:28:23.780Z,98784.81
2022-09-07T23:30:51.305Z,98777.00
2022-09-07T23:33:18.660Z,98770.94
2022-09-07T23:35:59.881Z,98777.22
2022-09-07T23:38:27.876Z,98777.38
2022-09-07T23:40:55.872Z,98772.28
2022-09-07T23:43:23.379Z,98766.09
2022-09-07T23:45:50.828Z,98774.13
2022-09-07T23:48:17.653Z,98773.31
2022-09-07T23:50:45.595Z,98776.16
2022-09-07T23:53:13.005Z,98769.25
2022-09-07T23:55:40.605Z,98772.84
2022-09-07T23:58:08.838Z,98765.00
